Time;durP1;ratioP1;P1;durP2;ratioP2;P2;SDS_P1;SDS_P2;PMS_P1;PMS_P2;Temp;Humidity;BMP_temperature;BMP_pressure;BME280_temperature;BME280_humidity;BME280_pressure;Samples;Min_cycle;Max_cycle;Signal;HPM_P1;HPM_P2
2023/10/28 00:01:01;;;;;;;3.95;1.42;;;11.40;99.90;;;;;;5053110;28;20212;-62
2023/10/28 00:03:28;;;;;;;5.25;1.52;;;11.40;99.90;;;;;;5052711;28;20740;-62
2023/10/28 00:05:56;;;;;;;6.05;1.58;;;11.40;99.90;;;;;;5051998;28;20310;-62
2023/10/28 00:08:24;;;;;;;4.50;1.30;;;11.40;99.90;;;;;;5052326;28;20237;-62
2023/10/28 00:10:52;;;;;;;2.33;1.25;;;11.40;99.90;;;;;;5052990;28;20662;-62
2023/10/28 00:13:20;;;;;;;7.32;1.40;;;11.40;99.90;;;;;;5052695;28;20202;-62
2023/10/28 00:15:49;;;;;;;3.78;1.10;;;11.40;99.90;;;;;;5051283;28;20734;-62
2023/10/28 00:18:17;;;;;;;4.10;1.05;;;11.40;99.90;;;;;;5049794;28;20218;-61
2023/10/28 00:20:45;;;;;;;4.03;1.25;;;11.40;99.90;;;;;;5052902;28;20194;-62
2023/10/28 00:23:14;;;;;;;3.63;1.02;;;11.40;99.90;;;;;;5052643;28;20252;-61
2023/10/28 00:25:42;;;;;;;2.17;1.10;;;11.40;99.90;;;;;;5076021;22;20234;-70
2023/10/28 00:28:10;;;;;;;3.28;0.98;;;11.40;99.90;;;;;;5052287;28;20618;-69
2023/10/28 00:30:38;;;;;;;4.75;1.10;;;11.40;99.90;;;;;;5041673;28;20753;-70
2023/10/28 00:33:08;;;;;;;4.90;0.95;;;11.40;99.90;;;;;;5033568;28;20242;-69
2023/10/28 00:35:37;;;;;;;2.53;0.80;;;11.40;99.90;;;;;;5033443;28;20209;-69
2023/10/28 00:38:05;;;;;;;5.45;0.90;;;11.40;99.90;;;;;;5047240;28;20857;-69
2023/10/28 00:40:33;;;;;;;1.80;0.77;;;11.40;99.90;;;;;;5043016;28;20313;-68
2023/10/28 00:43:01;;;;;;;2.00;0.98;;;11.40;99.90;;;;;;5033283;28;20202;-69
2023/10/28 00:45:29;;;;;;;1.15;0.70;;;11.40;99.90;;;;;;5051619;28;20201;-69
2023/10/28 00:47:57;;;;;;;1.80;0.75;;;11.40;99.90;;;;;;5039282;28;20202;-69
2023/10/28 00:50:29;;;;;;;2.13;0.70;;;11.40;99.90;;;;;;5033286;28;20322;-69
2023/10/28 00:52:59;;;;;;;1.38;0.45;;;11.40;99.90;;;;;;5031109;28;20207;-69
2023/10/28 00:55:29;;;;;;;4.85;0.65;;;11.40;99.90;;;;;;5032984;28;20688;-69
2023/10/28 00:57:57;;;;;;;1.42;0.90;;;11.40;99.90;;;;;;5032074;28;20213;-69
2023/10/28 01:00:25;;;;;;;3.83;0.75;;;11.40;99.90;;;;;;5032049;28;20276;-71
2023/10/28 01:02:53;;;;;;;3.13;0.90;;;11.40;99.90;;;;;;5031862;28;20264;-70
2023/10/28 01:05:22;;;;;;;1.65;0.90;;;11.40;99.90;;;;;;5032078;28;20210;-70
2023/10/28 01:07:51;;;;;;;4.05;0.98;;;11.40;99.90;;;;;;5031815;28;20249;-70
2023/10/28 01:10:27;;;;;;;5.65;1.00;;;11.40;99.90;;;;;;5031587;28;20257;-70
2023/10/28 01:12:55;;;;;;;5.38;1.08;;;11.40;99.90;;;;;;5039119;28;20208;-69
2023/10/28 01:15:23;;;;;;;5.55;1.38;;;11.40;99.90;;;;;;5042060;28;20626;-69
2023/10/28 01:17:51;;;;;;;5.70;1.05;;;11.40;99.90;;;;;;5031968;28;20206;-70
2023/10/28 01:20:19;;;;;;;3.33;1.30;;;11.40;99.90;;;;;;5031706;28;20778;-69
2023/10/28 01:22:48;;;;;;;4.45;1.27;;;11.40;99.90;;;;;;5031627;28;20269;-69
2023/10/28 01:25:16;;;;;;;2.88;0.90;;;11.40;99.90;;;;;;5031749;28;20305;-70
2023/10/28 01:27:44;;;;;;;2.63;0.88;;;11.50;99.90;;;;;;5031507;28;20211;-69
2023/10/28 01:30:14;;;;;;;4.35;0.98;;;11.40;99.90;;;;;;5031382;28;20242;-69
2023/10/28 01:32:43;;;;;;;2.90;1.00;;;11.40;99.90;;;;;;5031951;28;20217;-69
2023/10/28 01:35:12;;;;;;;2.88;0.88;;;11.40;99.90;;;;;;5031083;28;20249;-69
2023/10/28 01:37:40;;;;;;;2.55;0.82;;;11.40;99.90;;;;;;5034169;28;20292;-71
2023/10/28 01:40:13;;;;;;;4.72;0.77;;;11.40;99.90;;;;;;5051120;28;20229;-69
2023/10/28 01:42:42;;;;;;;0.90;0.80;;;11.40;99.90;;;;;;5031471;28;20203;-69
2023/10/28 01:45:10;;;;;;;5.20;1.00;;;11.50;99.90;;;;;;5030712;28;20265;-70
2023/10/28 01:47:39;;;;;;;2.30;0.80;;;11.50;99.90;;;;;;5031273;28;20211;-69
2023/10/28 01:50:08;;;;;;;1.95;0.57;;;11.50;99.90;;;;;;5030934;28;20680;-69
2023/10/28 01:52:36;;;;;;;1.45;0.60;;;11.50;99.90;;;;;;5040850;28;20236;-69
2023/10/28 01:55:04;;;;;;;1.10;0.50;;;11.50;99.90;;;;;;5044711;28;20215;-70
2023/10/28 01:57:33;;;;;;;1.02;0.50;;;11.50;99.90;;;;;;5029176;28;20249;-69
2023/10/28 02:00:04;;;;;;;1.45;0.40;;;11.50;99.90;;;;;;5031203;28;20269;-69
2023/10/28 02:02:34;;;;;;;3.45;0.40;;;11.50;99.90;;;;;;5031019;28;20242;-69
2023/10/28 02:05:02;;;;;;;0.98;0.47;;;11.50;99.90;;;;;;5030331;28;20641;-69
2023/10/28 02:07:30;;;;;;;0.28;0.10;;;11.50;99.90;;;;;;5048598;28;20201;-69
2023/10/28 02:09:58;;;;;;;0.25;0.20;;;11.50;99.90;;;;;;5037015;28;20280;-69
2023/10/28 02:12:26;;;;;;;0.20;0.20;;;11.50;99.90;;;;;;5030232;28;20565;-69
2023/10/28 02:14:55;;;;;;;5.22;0.40;;;11.50;99.90;;;;;;5030575;28;20653;-69
2023/10/28 02:17:23;;;;;;;0.45;0.30;;;11.60;99.90;;;;;;5031164;28;20245;-69
2023/10/28 02:19:50;;;;;;;1.15;0.60;;;11.50;99.90;;;;;;5030886;28;20258;-69
2023/10/28 02:22:18;;;;;;;1.73;0.50;;;11.50;99.90;;;;;;5030877;28;20209;-70
2023/10/28 02:24:46;;;;;;;0.40;0.40;;;11.50;99.90;;;;;;5030524;28;20202;-69
2023/10/28 02:27:14;;;;;;;1.40;0.40;;;11.50;99.90;;;;;;5030575;28;20293;-69
2023/10/28 02:29:42;;;;;;;2.40;0.40;;;11.50;99.90;;;;;;5029505;28;20317;-70
2023/10/28 02:32:11;;;;;;;1.75;0.40;;;11.50;99.90;;;;;;5031079;28;20226;-69
2023/10/28 02:34:41;;;;;;;1.30;0.43;;;11.50;99.90;;;;;;5040467;28;20206;-70
2023/10/28 02:37:10;;;;;;;1.45;0.40;;;11.50;99.90;;;;;;5044238;28;20215;-70
2023/10/28 02:39:38;;;;;;;1.13;0.25;;;11.40;99.90;;;;;;5032182;28;20236;-70
2023/10/28 02:42:06;;;;;;;1.02;0.30;;;11.40;99.90;;;;;;5034727;28;20233;-70
2023/10/28 02:44:34;;;;;;;2.58;0.30;;;11.50;99.90;;;;;;5034240;28;20637;-70
2023/10/28 02:47:02;;;;;;;1.85;0.30;;;11.50;99.90;;;;;;5034805;28;20238;-70
2023/10/28 02:49:31;;;;;;;1.35;0.30;;;11.40;99.90;;;;;;5034384;28;20233;-70
2023/10/28 02:51:59;;;;;;;1.85;0.40;;;11.40;99.90;;;;;;5034483;28;20250;-70
2023/10/28 02:54:27;;;;;;;0.40;0.22;;;11.50;99.90;;;;;;5033509;28;20210;-70
2023/10/28 02:56:55;;;;;;;1.65;0.60;;;11.40;99.90;;;;;;5034472;28;20597;-70
2023/10/28 02:59:23;;;;;;;2.85;0.30;;;11.40;99.90;;;;;;5033606;28;20313;-70
2023/10/28 03:01:50;;;;;;;0.63;0.40;;;11.40;99.90;;;;;;5036630;28;20230;-70
2023/10/28 03:04:19;;;;;;;4.53;0.65;;;11.40;99.90;;;;;;5046444;28;20298;-70
2023/10/28 03:06:48;;;;;;;4.65;0.40;;;11.40;99.90;;;;;;5034165;28;20226;-70
2023/10/28 03:09:17;;;;;;;0.65;0.20;;;11.40;99.90;;;;;;5034123;28;20293;-70
2023/10/28 03:11:45;;;;;;;1.30;0.30;;;11.40;99.90;;;;;;5034245;28;20229;-69
2023/10/28 03:14:13;;;;;;;1.65;0.40;;;11.40;99.90;;;;;;5034064;28;20207;-69
2023/10/28 03:16:41;;;;;;;1.77;0.30;;;11.30;99.90;;;;;;5033712;28;20214;-69
2023/10/28 03:19:11;;;;;;;2.58;0.47;;;11.30;99.90;;;;;;5033786;28;20213;-69
2023/10/28 03:21:39;;;;;;;1.08;0.70;;;11.30;99.90;;;;;;5033603;28;20671;-70
2023/10/28 03:24:09;;;;;;;0.93;0.40;;;11.30;99.90;;;;;;5033868;28;20211;-70
2023/10/28 03:26:36;;;;;;;6.55;0.55;;;11.30;99.90;;;;;;5032898;28;20237;-70
2023/10/28 03:29:04;;;;;;;1.98;0.47;;;11.30;99.90;;;;;;5041219;28;20214;-70
2023/10/28 03:31:32;;;;;;;2.47;0.30;;;11.30;99.90;;;;;;5043758;28;20231;-69
2023/10/28 03:34:00;;;;;;;4.95;0.30;;;11.30;99.90;;;;;;5037072;28;20218;-70
2023/10/28 03:36:28;;;;;;;1.27;0.40;;;11.30;99.90;;;;;;5047682;28;20746;-70
2023/10/28 03:38:56;;;;;;;2.55;0.70;;;11.30;99.90;;;;;;5033358;28;20297;-70
2023/10/28 03:41:26;;;;;;;0.70;0.50;;;11.30;99.90;;;;;;5033543;28;20245;-70
2023/10/28 03:43:53;;;;;;;1.80;0.40;;;11.30;99.90;;;;;;5032984;28;20242;-69
2023/10/28 03:46:21;;;;;;;3.55;0.63;;;11.30;99.90;;;;;;5032718;28;20213;-70
2023/10/28 03:48:50;;;;;;;0.93;0.40;;;11.30;99.90;;;;;;5031794;28;20211;-69
2023/10/28 03:51:18;;;;;;;1.25;0.47;;;11.30;99.90;;;;;;5032618;28;20257;-70
2023/10/28 03:53:46;;;;;;;7.95;0.60;;;11.30;99.90;;;;;;5033070;28;20215;-70
2023/10/28 03:56:13;;;;;;;1.90;0.55;;;11.30;99.90;;;;;;5031679;28;20750;-70
2023/10/28 03:58:43;;;;;;;4.78;0.60;;;11.30;99.90;;;;;;5040838;28;20213;-69
2023/10/28 04:01:11;;;;;;;1.75;0.40;;;11.30;99.90;;;;;;5032782;28;20233;-69
2023/10/28 04:03:39;;;;;;;4.28;0.75;;;11.20;99.90;;;;;;5033073;28;20253;-70
2023/10/28 04:06:07;;;;;;;3.15;0.75;;;11.20;99.90;;;;;;5032703;28;20206;-70
2023/10/28 04:08:35;;;;;;;3.72;0.77;;;11.20;99.90;;;;;;5032632;28;20292;-69
2023/10/28 04:11:03;;;;;;;3.33;0.70;;;11.20;99.90;;;;;;5032898;28;20316;-70
2023/10/28 04:13:31;;;;;;;2.92;0.80;;;11.20;99.90;;;;;;5032640;28;20683;-70
2023/10/28 04:16:01;;;;;;;4.90;1.13;;;11.20;99.90;;;;;;5032496;28;20198;-70
2023/10/28 04:18:29;;;;;;;8.20;0.70;;;11.30;99.90;;;;;;5032371;28;20207;-70
2023/10/28 04:20:57;;;;;;;5.88;0.57;;;11.30;99.90;;;;;;5052326;22;20229;-56
2023/10/28 04:23:25;;;;;;;1.88;0.70;;;11.30;99.90;;;;;;5051262;28;20255;-57
2023/10/28 04:25:53;;;;;;;2.20;0.70;;;11.30;99.90;;;;;;5048548;28;20276;-58
2023/10/28 04:28:21;;;;;;;2.78;0.68;;;11.30;99.90;;;;;;5048203;28;20210;-54
2023/10/28 04:30:56;;;;;;;1.65;0.63;;;11.30;99.90;;;;;;5041356;28;20265;-55
2023/10/28 04:33:25;;;;;;;2.05;0.73;;;11.30;99.90;;;;;;5032204;28;20258;-55
2023/10/28 04:35:53;;;;;;;6.45;0.85;;;11.30;99.90;;;;;;5032272;28;20310;-54
2023/10/28 04:38:21;;;;;;;3.40;0.50;;;11.30;99.90;;;;;;5032092;28;20211;-55
2023/10/28 04:40:50;;;;;;;4.32;0.60;;;11.30;99.90;;;;;;5051572;28;20233;-55
2023/10/28 04:43:19;;;;;;;5.32;0.80;;;11.30;99.90;;;;;;5037244;28;20233;-55
2023/10/28 04:45:48;;;;;;;1.13;0.40;;;11.30;99.90;;;;;;5031987;28;20675;-56
2023/10/28 04:48:16;;;;;;;2.85;0.57;;;11.30;99.90;;;;;;5031394;28;20289;-55
2023/10/28 04:50:47;;;;;;;1.95;0.50;;;11.20;99.90;;;;;;5050295;28;20285;-57
2023/10/28 04:53:15;;;;;;;3.92;0.60;;;11.20;99.90;;;;;;5031928;28;20226;-55
2023/10/28 04:55:43;;;;;;;1.80;0.50;;;11.20;99.90;;;;;;5031827;28;20603;-56
2023/10/28 04:58:11;;;;;;;2.47;0.70;;;11.20;99.90;;;;;;5043751;28;20218;-56
2023/10/28 05:00:40;;;;;;;4.22;0.63;;;11.20;99.90;;;;;;5045229;28;20709;-57
2023/10/28 05:03:08;;;;;;;2.67;0.63;;;11.20;99.90;;;;;;5043615;28;20656;-55
2023/10/28 05:05:37;;;;;;;3.45;0.80;;;11.20;99.90;;;;;;5050514;28;20233;-57
2023/10/28 05:08:06;;;;;;;2.10;0.80;;;11.30;99.90;;;;;;5032133;28;20245;-55
2023/10/28 05:10:34;;;;;;;3.80;0.90;;;11.20;99.90;;;;;;5031777;28;20210;-56
2023/10/28 05:13:03;;;;;;;4.10;0.70;;;11.30;99.90;;;;;;5031722;28;20321;-55
2023/10/28 05:15:30;;;;;;;2.47;0.60;;;11.20;99.90;;;;;;5031031;28;20298;-56
2023/10/28 05:17:58;;;;;;;4.60;1.00;;;11.20;99.90;;;;;;5030801;28;20664;-55
2023/10/28 05:20:26;;;;;;;5.05;1.10;;;11.30;99.90;;;;;;5031361;28;20672;-56
2023/10/28 05:22:54;;;;;;;6.57;0.77;;;11.20;99.90;;;;;;5030522;28;20672;-55
2023/10/28 05:25:23;;;;;;;1.80;0.60;;;11.20;99.90;;;;;;5031444;28;20214;-56
2023/10/28 05:27:51;;;;;;;3.65;0.85;;;11.20;99.90;;;;;;5030983;28;20211;-56
2023/10/28 05:30:19;;;;;;;3.75;0.93;;;11.20;99.90;;;;;;5031501;28;20210;-54
2023/10/28 05:32:46;;;;;;;1.70;0.55;;;11.20;99.90;;;;;;5031227;28;20225;-54
2023/10/28 05:35:15;;;;;;;4.60;0.85;;;11.20;99.90;;;;;;5030489;28;20221;-55
2023/10/28 05:37:42;;;;;;;4.93;0.80;;;11.20;99.90;;;;;;5031621;28;20210;-54
2023/10/28 05:40:13;;;;;;;2.88;0.70;;;11.20;99.90;;;;;;5030479;28;20260;-56
2023/10/28 05:42:42;;;;;;;5.38;0.95;;;11.20;99.90;;;;;;5031389;28;20202;-55
2023/10/28 05:45:10;;;;;;;3.15;0.80;;;11.20;99.90;;;;;;5031082;28;20207;-54
2023/10/28 05:47:38;;;;;;;2.63;1.05;;;11.20;99.90;;;;;;5031273;28;20655;-57
2023/10/28 05:50:07;;;;;;;4.95;1.00;;;11.20;99.90;;;;;;5031331;28;20238;-55
2023/10/28 05:52:38;;;;;;;6.50;1.00;;;11.30;99.90;;;;;;5031562;28;20312;-54
2023/10/28 05:55:07;;;;;;;7.80;1.00;;;11.30;99.90;;;;;;5030957;28;20238;-55
2023/10/28 05:57:36;;;;;;;4.75;0.98;;;11.30;99.90;;;;;;5031055;28;20230;-56
2023/10/28 06:00:09;;;;;;;4.85;0.80;;;11.30;99.90;;;;;;5030989;28;20214;-55
2023/10/28 06:02:37;;;;;;;2.38;1.00;;;11.30;99.90;;;;;;5031274;28;20207;-56
2023/10/28 06:05:06;;;;;;;1.83;0.90;;;11.30;99.90;;;;;;5031056;28;20234;-55
2023/10/28 06:07:34;;;;;;;6.63;1.05;;;11.30;99.90;;;;;;5030164;28;20695;-54
2023/10/28 06:10:04;;;;;;;6.32;1.48;;;11.40;99.90;;;;;;5029717;28;20210;-56
2023/10/28 06:12:32;;;;;;;5.15;0.90;;;11.40;99.90;;;;;;5022586;28;20320;-58
2023/10/28 06:15:01;;;;;;;4.72;0.98;;;11.40;99.90;;;;;;5025467;28;20241;-54
2023/10/28 06:17:30;;;;;;;8.43;1.25;;;11.40;99.90;;;;;;5035212;28;20305;-55
2023/10/28 06:19:59;;;;;;;5.30;1.05;;;11.40;99.90;;;;;;5033726;28;20214;-55
2023/10/28 06:22:26;;;;;;;4.50;0.90;;;11.40;99.90;;;;;;5035171;28;20332;-56
2023/10/28 06:24:54;;;;;;;8.38;1.23;;;11.40;99.90;;;;;;5033499;28;20278;-55
2023/10/28 06:27:22;;;;;;;7.50;1.17;;;11.40;99.90;;;;;;5035334;28;20300;-56
2023/10/28 06:29:50;;;;;;;4.65;1.00;;;11.40;99.90;;;;;;5034812;28;20718;-58
2023/10/28 06:32:18;;;;;;;6.10;1.23;;;11.40;99.90;;;;;;5034787;28;20629;-58
2023/10/28 06:34:47;;;;;;;4.03;1.20;;;11.50;99.90;;;;;;5034521;28;20700;-57
2023/10/28 06:37:15;;;;;;;5.70;1.50;;;11.50;99.90;;;;;;5034690;28;20226;-58
2023/10/28 06:39:46;;;;;;;4.82;1.10;;;11.50;99.90;;;;;;5033446;28;20305;-57
2023/10/28 06:42:16;;;;;;;8.43;1.70;;;11.50;99.90;;;;;;5034473;28;20210;-57
2023/10/28 06:44:44;;;;;;;10.77;1.42;;;11.50;99.90;;;;;;5031695;28;20202;-58
2023/10/28 06:47:12;;;;;;;4.28;1.30;;;11.50;99.90;;;;;;5025033;28;20625;-57
2023/10/28 06:49:41;;;;;;;10.13;2.03;;;11.50;99.90;;;;;;5031499;28;20241;-58
2023/10/28 06:52:11;;;;;;;5.20;1.20;;;11.50;99.90;;;;;;5032401;28;20257;-57
2023/10/28 06:54:38;;;;;;;7.78;1.27;;;11.50;99.90;;;;;;5032534;28;20601;-58
2023/10/28 06:57:07;;;;;;;3.67;1.45;;;11.50;99.90;;;;;;5032219;28;20312;-57
2023/10/28 06:59:35;;;;;;;6.05;1.30;;;11.50;99.90;;;;;;5033237;28;20305;-57
2023/10/28 07:02:03;;;;;;;7.78;1.42;;;11.50;99.90;;;;;;5033265;28;20234;-57
2023/10/28 07:04:31;;;;;;;11.48;1.85;;;11.50;99.90;;;;;;5031949;28;20195;-57
2023/10/28 07:06:59;;;;;;;5.05;1.20;;;11.50;99.90;;;;;;5033048;28;20289;-56
2023/10/28 07:09:29;;;;;;;6.43;1.40;;;11.60;99.90;;;;;;5033563;28;20692;-57
2023/10/28 07:11:56;;;;;;;4.63;1.13;;;11.60;99.90;;;;;;5033143;28;20210;-57
2023/10/28 07:14:24;;;;;;;5.05;1.15;;;11.60;99.90;;;;;;5026236;28;20337;-57
2023/10/28 07:16:52;;;;;;;7.15;1.27;;;11.60;99.90;;;;;;5028972;28;20238;-58
2023/10/28 07:19:21;;;;;;;8.10;1.15;;;11.60;99.90;;;;;;5030610;28;20202;-57
2023/10/28 07:21:49;;;;;;;5.10;1.13;;;11.60;99.90;;;;;;5028444;28;20301;-57
2023/10/28 07:24:16;;;;;;;9.70;1.73;;;11.60;99.90;;;;;;5027716;28;20290;-57
2023/10/28 07:26:45;;;;;;;7.50;1.08;;;11.60;99.90;;;;;;5014461;28;20293;-58
2023/10/28 07:29:13;;;;;;;5.82;1.30;;;11.60;99.90;;;;;;5016372;28;20243;-58
2023/10/28 07:31:41;;;;;;;6.18;1.42;;;11.60;99.90;;;;;;5029331;28;20211;-58
2023/10/28 07:34:09;;;;;;;10.27;1.77;;;11.70;99.90;;;;;;5031274;28;20317;-57
2023/10/28 07:36:37;;;;;;;7.10;1.08;;;11.70;99.90;;;;;;5021931;28;20783;-58
2023/10/28 07:39:05;;;;;;;7.95;1.15;;;11.70;99.90;;;;;;5025732;28;20636;-57
2023/10/28 07:41:33;;;;;;;6.50;1.40;;;11.70;99.90;;;;;;5027068;28;20294;-57
2023/10/28 07:44:03;;;;;;;7.10;1.30;;;11.80;99.90;;;;;;5033126;28;20887;-58
2023/10/28 07:46:31;;;;;;;2.70;1.00;;;11.80;99.90;;;;;;5033437;28;20223;-58
2023/10/28 07:48:58;;;;;;;7.32;1.30;;;11.80;99.90;;;;;;5033544;28;20643;-59
2023/10/28 07:51:26;;;;;;;3.33;1.00;;;11.90;99.90;;;;;;5033709;28;20644;-59
2023/10/28 07:53:54;;;;;;;8.15;1.45;;;11.90;99.90;;;;;;5031951;28;20846;-58
2023/10/28 07:56:22;;;;;;;6.85;1.33;;;12.00;99.90;;;;;;5035389;28;20261;-59
2023/10/28 07:58:52;;;;;;;4.82;0.98;;;12.00;99.90;;;;;;5032416;28;20211;-59
2023/10/28 08:01:22;;;;;;;3.20;1.10;;;12.10;99.90;;;;;;5033416;28;20206;-59
2023/10/28 08:03:52;;;;;;;10.32;1.52;;;12.10;99.90;;;;;;5033189;28;20205;-58
2023/10/28 08:06:20;;;;;;;2.00;1.25;;;12.20;99.90;;;;;;5033470;28;20300;-58
2023/10/28 08:09:04;;;;;;;7.43;1.20;;;12.20;99.90;;;;;;5032743;28;20206;-58
2023/10/28 08:11:33;;;;;;;4.30;1.20;;;12.20;99.90;;;;;;5033133;28;20719;-59
2023/10/28 08:14:03;;;;;;;3.65;1.10;;;12.30;99.90;;;;;;5032503;28;20223;-59
2023/10/28 08:16:34;;;;;;;4.60;1.13;;;12.30;99.90;;;;;;5032831;28;20740;-58
2023/10/28 08:19:03;;;;;;;4.72;1.05;;;12.30;99.90;;;;;;5032821;28;20301;-59
2023/10/28 08:21:31;;;;;;;4.40;1.00;;;12.30;99.90;;;;;;5032732;28;20224;-58
2023/10/28 08:24:00;;;;;;;5.93;1.20;;;12.30;99.90;;;;;;5032675;28;20654;-58
2023/10/28 08:26:27;;;;;;;4.75;1.17;;;12.30;99.90;;;;;;5032764;28;20233;-58
2023/10/28 08:28:55;;;;;;;7.03;1.30;;;12.30;99.90;;;;;;5032599;28;20207;-58
2023/10/28 08:31:23;;;;;;;7.68;1.05;;;12.30;99.90;;;;;;5032853;28;20354;-58
2023/10/28 08:33:53;;;;;;;9.45;1.20;;;12.30;99.90;;;;;;5032339;28;20700;-57
2023/10/28 08:36:20;;;;;;;2.75;0.85;;;12.30;99.90;;;;;;5030971;28;20257;-58
2023/10/28 08:38:49;;;;;;;5.50;1.27;;;12.30;99.90;;;;;;5032068;28;20207;-57
2023/10/28 08:41:19;;;;;;;9.02;1.40;;;12.30;99.90;;;;;;5032532;28;20206;-58
2023/10/28 08:43:47;;;;;;;6.60;0.90;;;12.30;99.90;;;;;;5030895;28;20199;-57
2023/10/28 08:46:16;;;;;;;1.90;1.25;;;12.30;99.90;;;;;;5032119;28;20233;-58
2023/10/28 08:48:44;;;;;;;3.25;1.10;;;12.30;99.90;;;;;;5032191;28;20294;-57
2023/10/28 08:51:14;;;;;;;3.22;1.17;;;12.40;99.90;;;;;;5032457;28;20276;-57
2023/10/28 08:53:43;;;;;;;5.28;1.10;;;12.50;99.90;;;;;;5032051;28;20558;-58
2023/10/28 08:56:12;;;;;;;5.55;1.10;;;12.50;99.90;;;;;;5031978;28;20318;-58
2023/10/28 08:58:39;;;;;;;5.05;1.30;;;12.60;99.90;;;;;;5031928;28;20206;-58
2023/10/28 09:01:08;;;;;;;5.50;1.23;;;12.70;99.90;;;;;;5031856;28;20203;-58
2023/10/28 09:03:36;;;;;;;5.38;1.05;;;12.80;99.90;;;;;;5031905;28;20286;-57
2023/10/28 09:06:05;;;;;;;4.63;0.82;;;12.80;99.90;;;;;;5031866;28;20218;-57
2023/10/28 09:08:34;;;;;;;5.20;1.10;;;12.80;99.90;;;;;;5031331;28;20264;-58
2023/10/28 09:11:02;;;;;;;4.13;1.08;;;12.80;99.90;;;;;;5031228;28;20297;-57
2023/10/28 09:13:30;;;;;;;5.78;1.23;;;12.80;99.90;;;;;;5032001;28;20286;-57
2023/10/28 09:15:58;;;;;;;3.40;0.95;;;12.80;99.90;;;;;;5031162;28;20715;-58
2023/10/28 09:18:25;;;;;;;3.00;0.95;;;12.70;99.90;;;;;;5031975;28;20203;-57
2023/10/28 09:20:54;;;;;;;5.93;1.27;;;12.70;99.90;;;;;;5039017;28;20690;-58
2023/10/28 09:23:24;;;;;;;7.57;1.00;;;12.70;99.90;;;;;;5049488;28;20202;-59
2023/10/28 09:25:53;;;;;;;4.70;1.27;;;12.70;99.90;;;;;;5041910;28;20219;-58
2023/10/28 09:28:21;;;;;;;4.35;1.00;;;12.70;99.90;;;;;;5031711;28;20206;-58
2023/10/28 09:30:49;;;;;;;4.43;1.38;;;12.80;99.90;;;;;;5031361;28;20616;-58
2023/10/28 09:33:17;;;;;;;6.18;1.30;;;12.90;99.90;;;;;;5031611;28;20241;-57
2023/10/28 09:35:46;;;;;;;10.00;1.45;;;13.10;99.90;;;;;;5030219;28;20765;-57
2023/10/28 09:38:14;;;;;;;4.90;1.00;;;13.30;99.90;;;;;;5031504;28;20207;-57
2023/10/28 09:40:42;;;;;;;4.38;0.90;;;13.50;99.90;;;;;;5031068;28;20207;-58
2023/10/28 09:43:11;;;;;;;4.00;1.40;;;13.70;99.90;;;;;;5031674;28;20309;-58
2023/10/28 09:45:41;;;;;;;11.15;1.38;;;13.80;99.90;;;;;;5030988;28;20673;-57
2023/10/28 09:48:12;;;;;;;7.28;1.30;;;13.80;99.90;;;;;;5031335;28;20293;-58
2023/10/28 09:50:44;;;;;;;7.05;1.00;;;13.70;99.90;;;;;;5031036;28;20245;-58
2023/10/28 09:53:12;;;;;;;4.38;1.50;;;13.60;99.90;;;;;;5031487;28;20203;-58
2023/10/28 09:55:40;;;;;;;5.60;1.30;;;13.60;99.90;;;;;;5030719;28;20237;-58
2023/10/28 09:58:12;;;;;;;3.83;1.10;;;13.60;99.90;;;;;;5031400;28;20238;-58
2023/10/28 10:00:39;;;;;;;7.45;1.15;;;13.60;99.90;;;;;;5030372;28;20249;-58
2023/10/28 10:03:16;;;;;;;9.88;1.33;;;13.70;99.90;;;;;;5030667;28;20257;-59
2023/10/28 10:05:44;;;;;;;4.82;1.25;;;13.70;99.90;;;;;;5030721;28;20229;-58
2023/10/28 10:08:19;;;;;;;7.28;1.30;;;13.70;99.90;;;;;;5023331;28;20244;-59
2023/10/28 10:10:48;;;;;;;8.02;1.50;;;13.60;99.90;;;;;;5030788;28;20213;-58
2023/10/28 10:13:17;;;;;;;4.97;1.42;;;13.60;99.90;;;;;;5031181;28;20378;-57
2023/10/28 10:15:53;;;;;;;5.30;0.98;;;13.60;99.90;;;;;;5030414;28;20226;-58
2023/10/28 10:18:26;;;;;;;10.10;1.65;;;13.60;99.90;;;;;;5030504;28;20297;-58
2023/10/28 10:21:04;;;;;;;4.15;1.10;;;13.60;99.90;;;;;;5030133;28;20305;-58
2023/10/28 10:23:41;;;;;;;8.60;1.45;;;13.70;99.90;;;;;;5031001;28;20202;-58
2023/10/28 10:26:20;;;;;;;6.32;1.42;;;13.80;99.90;;;;;;5029930;28;20270;-58
2023/10/28 10:28:51;;;;;;;5.78;1.42;;;13.90;99.90;;;;;;5030469;28;20584;-58
2023/10/28 10:31:20;;;;;;;10.23;1.58;;;14.20;99.90;;;;;;5030775;28;20734;-58
2023/10/28 10:33:59;;;;;;;7.28;1.73;;;14.40;99.90;;;;;;5030867;28;20211;-59
2023/10/28 10:36:27;;;;;;;4.30;1.02;;;14.70;99.90;;;;;;5030686;28;20234;-58
2023/10/28 10:38:55;;;;;;;6.70;1.20;;;14.80;99.90;;;;;;5030627;28;20591;-58
2023/10/28 10:41:28;;;;;;;5.03;1.17;;;14.80;99.90;;;;;;5028979;28;20297;-58
2023/10/28 10:43:57;;;;;;;4.60;1.27;;;14.70;99.90;;;;;;5027617;28;20206;-58
2023/10/28 10:46:25;;;;;;;5.93;1.52;;;14.60;99.90;;;;;;5050500;28;20221;-59
2023/10/28 10:48:53;;;;;;;4.53;1.38;;;14.40;99.90;;;;;;5033339;28;20230;-57
2023/10/28 10:51:20;;;;;;;10.70;1.52;;;14.40;99.90;;;;;;5030843;28;20209;-58
2023/10/28 10:53:48;;;;;;;3.92;1.17;;;14.30;99.90;;;;;;5030518;28;20723;-57
2023/10/28 10:56:20;;;;;;;8.25;1.20;;;14.30;99.90;;;;;;5030282;28;20589;-57
2023/10/28 10:58:48;;;;;;;10.38;1.60;;;14.20;99.90;;;;;;5030595;28;20203;-58
2023/10/28 11:01:17;;;;;;;7.82;1.35;;;14.10;99.90;;;;;;5025365;28;20253;-58
2023/10/28 11:03:45;;;;;;;8.98;1.65;;;14.10;99.90;;;;;;5034436;28;20206;-57
2023/10/28 11:06:13;;;;;;;7.93;1.88;;;14.00;99.90;;;;;;5033052;28;20246;-58
2023/10/28 11:08:41;;;;;;;5.20;1.80;;;14.00;99.90;;;;;;5034017;28;20275;-59
2023/10/28 11:11:09;;;;;;;6.88;1.80;;;14.00;99.90;;;;;;5033710;28;20634;-58
2023/10/28 11:13:37;;;;;;;5.38;1.23;;;14.00;99.90;;;;;;5034216;28;20668;-58
2023/10/28 11:16:05;;;;;;;13.25;1.95;;;14.00;99.90;;;;;;5032929;28;20678;-58
2023/10/28 11:18:35;;;;;;;10.85;2.10;;;14.00;99.90;;;;;;5034052;28;20209;-58
2023/10/28 11:21:04;;;;;;;5.15;1.40;;;14.00;99.90;;;;;;5033756;28;20313;-58
2023/10/28 11:23:32;;;;;;;6.90;1.35;;;14.00;99.90;;;;;;5034406;28;20199;-58
2023/10/28 11:26:03;;;;;;;13.27;1.90;;;14.10;99.90;;;;;;5033531;28;20595;-57
2023/10/28 11:28:33;;;;;;;11.32;1.52;;;14.10;99.90;;;;;;5034008;28;20203;-59
2023/10/28 11:31:00;;;;;;;5.75;2.05;;;14.10;99.90;;;;;;5033606;28;20272;-59
2023/10/28 11:33:28;;;;;;;8.18;1.20;;;14.10;99.90;;;;;;5033214;28;20294;-59
2023/10/28 11:35:59;;;;;;;5.47;1.33;;;14.10;99.90;;;;;;5036755;28;20225;-57
2023/10/28 11:38:27;;;;;;;4.78;1.30;;;14.00;99.90;;;;;;5048214;28;20230;-56
2023/10/28 11:41:03;;;;;;;6.55;1.40;;;14.00;99.90;;;;;;5033448;28;20199;-56
2023/10/28 11:43:31;;;;;;;6.63;1.33;;;13.90;99.90;;;;;;5033825;28;20202;-58
2023/10/28 11:45:59;;;;;;;6.65;1.30;;;13.90;99.90;;;;;;5033072;28;20257;-57
2023/10/28 11:48:27;;;;;;;4.82;1.30;;;13.90;99.90;;;;;;5030386;28;20203;-58
2023/10/28 11:50:55;;;;;;;7.18;1.30;;;13.90;99.90;;;;;;5027507;28;20280;-57
2023/10/28 11:53:24;;;;;;;7.68;1.30;;;13.80;99.90;;;;;;5031241;28;20315;-56
2023/10/28 11:55:52;;;;;;;3.53;1.17;;;13.80;99.90;;;;;;5029877;28;20312;-57
2023/10/28 11:58:20;;;;;;;7.00;1.40;;;13.80;99.90;;;;;;5031331;28;20244;-58
2023/10/28 12:00:50;;;;;;;7.30;1.30;;;13.80;99.90;;;;;;5031423;28;20315;-55
2023/10/28 12:03:18;;;;;;;6.25;1.30;;;13.80;99.90;;;;;;5033566;28;20206;-55
2023/10/28 12:05:46;;;;;;;10.07;1.65;;;13.80;99.90;;;;;;5031612;28;20218;-56
2023/10/28 12:08:13;;;;;;;8.18;1.17;;;13.80;99.90;;;;;;5032602;28;20297;-57
2023/10/28 12:10:44;;;;;;;9.38;1.65;;;13.80;99.90;;;;;;5031146;28;20227;-59
2023/10/28 12:13:12;;;;;;;6.25;1.40;;;13.80;99.90;;;;;;5028855;28;20238;-57
2023/10/28 12:15:39;;;;;;;5.10;1.73;;;13.70;99.90;;;;;;5032189;28;20257;-58
2023/10/28 12:18:07;;;;;;;10.73;1.60;;;13.70;99.90;;;;;;5031022;28;20207;-59
2023/10/28 12:20:36;;;;;;;10.82;1.73;;;13.70;99.90;;;;;;5029146;28;20268;-59
2023/10/28 12:23:04;;;;;;;6.70;1.65;;;13.70;99.90;;;;;;5024867;28;20297;-56
2023/10/28 12:25:32;;;;;;;9.13;1.95;;;13.60;99.90;;;;;;5012670;28;20203;-58
2023/10/28 12:28:02;;;;;;;4.55;1.35;;;13.70;99.90;;;;;;5022354;28;20218;-57
2023/10/28 12:30:30;;;;;;;8.15;1.85;;;13.60;99.90;;;;;;5028149;28;20240;-59
2023/10/28 12:32:58;;;;;;;11.00;2.30;;;13.70;99.90;;;;;;5026277;28;20242;-58
2023/10/28 12:35:26;;;;;;;8.43;2.45;;;13.60;99.90;;;;;;5027215;28;20863;-58
2023/10/28 12:37:54;;;;;;;11.05;1.80;;;13.60;99.90;;;;;;5029679;28;20233;-58
2023/10/28 12:40:22;;;;;;;12.10;2.15;;;13.70;99.90;;;;;;5028812;28;20238;-58
2023/10/28 12:42:50;;;;;;;8.38;1.63;;;13.70;99.90;;;;;;5027178;28;20816;-57
2023/10/28 12:45:19;;;;;;;7.88;1.77;;;13.70;99.90;;;;;;5028082;28;20233;-58
2023/10/28 12:47:49;;;;;;;17.05;2.45;;;13.70;99.90;;;;;;5029352;28;20209;-58
2023/10/28 12:50:18;;;;;;;13.57;2.22;;;13.70;99.90;;;;;;5023200;28;20691;-58
2023/10/28 12:52:46;;;;;;;12.10;1.90;;;13.70;99.90;;;;;;5029258;28;20210;-57